メインページ
METAR-TAF:

METAR-TAF

空港 :

バーレーン国際空港

バーレーン, バーレーン

緯度: 26-16N, 経度: 050-39E, 海抜: 2m

現時点の気象観測

当レポートは42分前の12:00(UTC)に作成
の風 10kt
気温 32°C
湿度 52%
気圧 1014 hPa
視程10km以上
高度3000ftの雲は散在している

METAR: OBBI 211200Z 08010KT 9999 SCT030 32/21 Q1014 NOSIG

時間: 15:42 (12:42 UTC)

予報

当レポートは1時間42分前の11:00(UTC)に作成
予報は21日の 12時(UTC)から 22日の 18時(UTC)まで有効
東/南東の風 8kt
視程: 8000m
高度3000ftの雲はほとんどない
確率 30% :
21日の 12時(UTC)から 21日の 15時(UTC)まで一時的に
北/北西の風 17kt、最大27ktの突風を伴う
視程: 5000m
高度4000ftの雲はほとんどない, 積乱雲.
高度10000ftの千切れ雲あり
激しい雷雨, 小雨
確率 30% :
22日の 06時(UTC)から 22日の 15時(UTC)まで一時的に
北/北西の風 20kt、最大30ktの突風を伴う
視程: 4000m
高度4000ftの雲は散在している, 積乱雲.
高度10000ftの千切れ雲あり
激しい雷雨, 雨

TAF: OBBI 211100Z 2112/2218 11008KT 8000 FEW030 PROB30 TEMPO 2112/2115 34017G27KT 5000 -TSRA FEW040CB BKN100 PROB30 TEMPO 2206/2215 33020G30KT 4000 TSRA SCT040CB BKN100

4,000以上の空港の気象観測と天気予報(METAR報とTAF報)

利用可能な観測所は地図上に黄色い丸と赤い丸で示す。

丸の上にカーソルを重ねると観測所名を参照できる。

次にクリックすると気象観測と天気予報を参照できる。

マップの切り替え:黒色「×」印の緑ボタンをクリックして拡大、「-」印の緑ボタンをクリックして縮小、緑色の三角印をクリックして隣りの地図に切り替え


METAR-TAF: